sensor_id;sensor_type;location;lat;lon;timestamp;temperature;humidity
3186;DHT22;1604;53.700;10.252;2023-09-07T00:00:21;18.00;99.90
3186;DHT22;1604;53.700;10.252;2023-09-07T00:03:24;18.00;99.90
3186;DHT22;1604;53.700;10.252;2023-09-07T00:06:27;17.90;99.90
3186;DHT22;1604;53.700;10.252;2023-09-07T00:09:29;17.90;99.90
3186;DHT22;1604;53.700;10.252;2023-09-07T00:12:31;17.90;99.90
3186;DHT22;1604;53.700;10.252;2023-09-07T00:15:36;17.80;99.90
3186;DHT22;1604;53.700;10.252;2023-09-07T00:18:38;17.80;99.90
3186;DHT22;1604;53.700;10.252;2023-09-07T00:21:41;17.80;99.90
3186;DHT22;1604;53.700;10.252;2023-09-07T00:24:43;17.80;99.90
3186;DHT22;1604;53.700;10.252;2023-09-07T00:27:45;17.80;99.90
3186;DHT22;1604;53.700;10.252;2023-09-07T00:30:47;17.80;99.90
3186;DHT22;1604;53.700;10.252;2023-09-07T00:33:49;17.80;99.90
3186;DHT22;1604;53.700;10.252;2023-09-07T00:36:52;17.80;99.90
3186;DHT22;1604;53.700;10.252;2023-09-07T00:39:54;17.80;99.90
3186;DHT22;1604;53.700;10.252;2023-09-07T00:42:56;17.80;99.90
3186;DHT22;1604;53.700;10.252;2023-09-07T00:45:58;17.70;99.90
3186;DHT22;1604;53.700;10.252;2023-09-07T00:49:00;17.70;99.90
3186;DHT22;1604;53.700;10.252;2023-09-07T00:52:05;17.70;99.90
3186;DHT22;1604;53.700;10.252;2023-09-07T00:55:08;17.70;99.90
3186;DHT22;1604;53.700;10.252;2023-09-07T00:58:10;17.70;99.90
3186;DHT22;1604;53.700;10.252;2023-09-07T01:01:13;17.70;99.90
3186;DHT22;1604;53.700;10.252;2023-09-07T01:04:15;17.60;99.90
3186;DHT22;1604;53.700;10.252;2023-09-07T01:07:21;17.60;99.90
3186;DHT22;1604;53.700;10.252;2023-09-07T01:10:25;17.60;99.90
3186;DHT22;1604;53.700;10.252;2023-09-07T01:13:27;17.60;99.90
3186;DHT22;1604;53.700;10.252;2023-09-07T01:16:30;17.50;99.90
3186;DHT22;1604;53.700;10.252;2023-09-07T01:19:34;17.50;99.90
3186;DHT22;1604;53.700;10.252;2023-09-07T01:22:38;17.50;99.90
3186;DHT22;1604;53.700;10.252;2023-09-07T01:25:42;17.40;99.90
3186;DHT22;1604;53.700;10.252;2023-09-07T01:28:44;17.40;99.90
3186;DHT22;1604;53.700;10.252;2023-09-07T01:31:46;17.40;99.90
3186;DHT22;1604;53.700;10.252;2023-09-07T01:34:48;17.30;99.90
3186;DHT22;1604;53.700;10.252;2023-09-07T01:37:52;17.30;99.90
3186;DHT22;1604;53.700;10.252;2023-09-07T01:40:54;17.30;99.90
3186;DHT22;1604;53.700;10.252;2023-09-07T01:43:58;17.30;99.90
3186;DHT22;1604;53.700;10.252;2023-09-07T01:47:00;17.30;99.90
3186;DHT22;1604;53.700;10.252;2023-09-07T01:50:02;17.30;99.90
3186;DHT22;1604;53.700;10.252;2023-09-07T01:53:06;17.30;99.90
3186;DHT22;1604;53.700;10.252;2023-09-07T01:56:09;17.20;99.90
3186;DHT22;1604;53.700;10.252;2023-09-07T01:59:11;17.20;99.90
3186;DHT22;1604;53.700;10.252;2023-09-07T02:02:13;17.20;99.90
3186;DHT22;1604;53.700;10.252;2023-09-07T02:05:15;17.20;99.90
3186;DHT22;1604;53.700;10.252;2023-09-07T02:08:19;17.10;99.90
3186;DHT22;1604;53.700;10.252;2023-09-07T02:11:21;17.10;99.90
3186;DHT22;1604;53.700;10.252;2023-09-07T02:14:23;17.10;99.90
3186;DHT22;1604;53.700;10.252;2023-09-07T02:17:25;17.10;99.90
3186;DHT22;1604;53.700;10.252;2023-09-07T02:20:27;17.10;99.90
3186;DHT22;1604;53.700;10.252;2023-09-07T02:23:31;17.00;99.90
3186;DHT22;1604;53.700;10.252;2023-09-07T02:26:33;17.00;99.90
3186;DHT22;1604;53.700;10.252;2023-09-07T02:29:35;17.00;99.90
3186;DHT22;1604;53.700;10.252;2023-09-07T02:32:37;17.00;99.90
3186;DHT22;1604;53.700;10.252;2023-09-07T02:35:39;17.00;99.90
3186;DHT22;1604;53.700;10.252;2023-09-07T02:38:42;17.00;99.90
3186;DHT22;1604;53.700;10.252;2023-09-07T02:41:44;17.00;99.90
3186;DHT22;1604;53.700;10.252;2023-09-07T02:44:46;16.90;99.90
3186;DHT22;1604;53.700;10.252;2023-09-07T02:47:49;16.90;99.90
3186;DHT22;1604;53.700;10.252;2023-09-07T02:50:51;16.90;99.90
3186;DHT22;1604;53.700;10.252;2023-09-07T02:53:56;16.90;99.90
3186;DHT22;1604;53.700;10.252;2023-09-07T02:56:58;16.90;99.90
3186;DHT22;1604;53.700;10.252;2023-09-07T03:00:00;16.90;99.90
3186;DHT22;1604;53.700;10.252;2023-09-07T03:03:09;16.90;99.90
3186;DHT22;1604;53.700;10.252;2023-09-07T03:06:13;16.80;99.90
3186;DHT22;1604;53.700;10.252;2023-09-07T03:09:18;16.80;99.90
3186;DHT22;1604;53.700;10.252;2023-09-07T03:12:20;16.80;99.90
3186;DHT22;1604;53.700;10.252;2023-09-07T03:15:22;16.70;99.90
3186;DHT22;1604;53.700;10.252;2023-09-07T03:18:24;16.70;99.90
3186;DHT22;1604;53.700;10.252;2023-09-07T03:21:26;16.60;99.90
3186;DHT22;1604;53.700;10.252;2023-09-07T03:24:31;16.60;99.90
3186;DHT22;1604;53.700;10.252;2023-09-07T03:27:33;16.60;99.90
3186;DHT22;1604;53.700;10.252;2023-09-07T03:30:35;16.50;99.90
3186;DHT22;1604;53.700;10.252;2023-09-07T03:33:37;16.50;99.90
3186;DHT22;1604;53.700;10.252;2023-09-07T03:36:39;16.50;99.90
3186;DHT22;1604;53.700;10.252;2023-09-07T03:39:42;16.50;99.90
3186;DHT22;1604;53.700;10.252;2023-09-07T03:42:44;16.40;99.90
3186;DHT22;1604;53.700;10.252;2023-09-07T03:45:46;16.40;99.90
3186;DHT22;1604;53.700;10.252;2023-09-07T03:48:48;16.40;99.90
3186;DHT22;1604;53.700;10.252;2023-09-07T03:51:50;16.40;99.90
3186;DHT22;1604;53.700;10.252;2023-09-07T03:54:57;16.30;99.90
3186;DHT22;1604;53.700;10.252;2023-09-07T03:58:02;16.30;99.90
3186;DHT22;1604;53.700;10.252;2023-09-07T04:01:04;16.30;99.90
3186;DHT22;1604;53.700;10.252;2023-09-07T04:04:06;16.30;99.90
3186;DHT22;1604;53.700;10.252;2023-09-07T04:07:08;16.20;99.90
3186;DHT22;1604;53.700;10.252;2023-09-07T04:10:11;16.20;99.90
3186;DHT22;1604;53.700;10.252;2023-09-07T04:13:13;16.20;99.90
3186;DHT22;1604;53.700;10.252;2023-09-07T04:16:16;16.10;99.90
3186;DHT22;1604;53.700;10.252;2023-09-07T04:19:18;16.10;99.90
3186;DHT22;1604;53.700;10.252;2023-09-07T04:22:20;16.10;99.90
3186;DHT22;1604;53.700;10.252;2023-09-07T04:25:23;16.00;99.90
3186;DHT22;1604;53.700;10.252;2023-09-07T04:28:26;16.00;99.90
3186;DHT22;1604;53.700;10.252;2023-09-07T04:31:28;16.00;99.90
3186;DHT22;1604;53.700;10.252;2023-09-07T04:34:30;16.00;99.90
3186;DHT22;1604;53.700;10.252;2023-09-07T04:37:32;16.00;99.90
3186;DHT22;1604;53.700;10.252;2023-09-07T04:40:35;16.00;99.90
3186;DHT22;1604;53.700;10.252;2023-09-07T04:43:38;16.00;99.90
3186;DHT22;1604;53.700;10.252;2023-09-07T04:46:40;15.90;99.90
3186;DHT22;1604;53.700;10.252;2023-09-07T04:49:47;15.90;99.90
3186;DHT22;1604;53.700;10.252;2023-09-07T04:52:50;15.90;99.90
3186;DHT22;1604;53.700;10.252;2023-09-07T04:55:53;15.90;99.90
3186;DHT22;1604;53.700;10.252;2023-09-07T04:58:55;15.90;99.90
3186;DHT22;1604;53.700;10.252;2023-09-07T05:01:59;15.80;99.90
3186;DHT22;1604;53.700;10.252;2023-09-07T05:05:02;15.80;99.90
3186;DHT22;1604;53.700;10.252;2023-09-07T05:08:05;15.80;99.90
3186;DHT22;1604;53.700;10.252;2023-09-07T05:11:08;15.80;99.90
3186;DHT22;1604;53.700;10.252;2023-09-07T05:14:14;15.80;99.90
3186;DHT22;1604;53.700;10.252;2023-09-07T05:17:15;15.80;99.90
3186;DHT22;1604;53.700;10.252;2023-09-07T05:20:20;15.80;99.90
3186;DHT22;1604;53.700;10.252;2023-09-07T05:23:23;15.80;99.90
3186;DHT22;1604;53.700;10.252;2023-09-07T05:26:28;15.80;99.90
3186;DHT22;1604;53.700;10.252;2023-09-07T05:29:29;15.90;99.90
3186;DHT22;1604;53.700;10.252;2023-09-07T05:32:31;15.90;99.90
3186;DHT22;1604;53.700;10.252;2023-09-07T05:35:33;15.90;99.90
3186;DHT22;1604;53.700;10.252;2023-09-07T05:38:38;16.00;99.90
3186;DHT22;1604;53.700;10.252;2023-09-07T05:41:42;16.00;99.90
3186;DHT22;1604;53.700;10.252;2023-09-07T05:44:44;16.00;99.90
3186;DHT22;1604;53.700;10.252;2023-09-07T05:47:46;16.10;99.90
3186;DHT22;1604;53.700;10.252;2023-09-07T05:50:48;16.20;99.90
3186;DHT22;1604;53.700;10.252;2023-09-07T05:53:51;16.30;99.90
3186;DHT22;1604;53.700;10.252;2023-09-07T05:56:58;16.40;99.90
3186;DHT22;1604;53.700;10.252;2023-09-07T06:00:02;16.60;99.90
3186;DHT22;1604;53.700;10.252;2023-09-07T06:03:04;16.70;99.90
3186;DHT22;1604;53.700;10.252;2023-09-07T06:06:07;16.80;99.90
3186;DHT22;1604;53.700;10.252;2023-09-07T06:09:09;16.90;99.90
3186;DHT22;1604;53.700;10.252;2023-09-07T06:12:12;17.00;99.90
3186;DHT22;1604;53.700;10.252;2023-09-07T06:15:14;17.10;99.90
3186;DHT22;1604;53.700;10.252;2023-09-07T06:18:16;17.30;99.90
3186;DHT22;1604;53.700;10.252;2023-09-07T06:21:18;17.50;99.90
3186;DHT22;1604;53.700;10.252;2023-09-07T06:24:20;17.60;99.90
3186;DHT22;1604;53.700;10.252;2023-09-07T06:27:23;17.80;99.90
3186;DHT22;1604;53.700;10.252;2023-09-07T06:30:25;18.10;99.90
3186;DHT22;1604;53.700;10.252;2023-09-07T06:33:27;18.30;99.90
3186;DHT22;1604;53.700;10.252;2023-09-07T06:36:34;18.50;99.90
3186;DHT22;1604;53.700;10.252;2023-09-07T06:39:37;18.80;99.90
3186;DHT22;1604;53.700;10.252;2023-09-07T06:42:40;19.00;99.90
3186;DHT22;1604;53.700;10.252;2023-09-07T06:45:42;19.20;99.90
3186;DHT22;1604;53.700;10.252;2023-09-07T06:48:44;19.40;99.90
3186;DHT22;1604;53.700;10.252;2023-09-07T06:51:46;19.60;99.90
3186;DHT22;1604;53.700;10.252;2023-09-07T06:54:51;19.80;99.90
3186;DHT22;1604;53.700;10.252;2023-09-07T06:57:55;20.00;99.90
3186;DHT22;1604;53.700;10.252;2023-09-07T07:00:58;20.20;99.90
3186;DHT22;1604;53.700;10.252;2023-09-07T07:04:00;20.40;99.90
3186;DHT22;1604;53.700;10.252;2023-09-07T07:07:02;20.70;99.90
3186;DHT22;1604;53.700;10.252;2023-09-07T07:10:06;21.00;99.90
3186;DHT22;1604;53.700;10.252;2023-09-07T07:13:10;21.20;99.90
3186;DHT22;1604;53.700;10.252;2023-09-07T07:16:11;21.50;99.80
3186;DHT22;1604;53.700;10.252;2023-09-07T07:19:14;21.60;99.80
3186;DHT22;1604;53.700;10.252;2023-09-07T07:22:16;21.80;99.70
3186;DHT22;1604;53.700;10.252;2023-09-07T07:25:18;21.90;99.50
3186;DHT22;1604;53.700;10.252;2023-09-07T07:28:21;22.20;99.20
3186;DHT22;1604;53.700;10.252;2023-09-07T07:31:23;22.40;99.00
3186;DHT22;1604;53.700;10.252;2023-09-07T07:34:25;22.60;98.50
3186;DHT22;1604;53.700;10.252;2023-09-07T07:37:29;22.80;97.80
3186;DHT22;1604;53.700;10.252;2023-09-07T07:40:32;23.00;97.10
3186;DHT22;1604;53.700;10.252;2023-09-07T07:43:35;23.20;96.70
3186;DHT22;1604;53.700;10.252;2023-09-07T07:46:37;23.30;96.30
3186;DHT22;1604;53.700;10.252;2023-09-07T07:49:39;23.40;95.90
3186;DHT22;1604;53.700;10.252;2023-09-07T07:52:41;23.50;96.00
3186;DHT22;1604;53.700;10.252;2023-09-07T07:55:43;23.70;95.70
3186;DHT22;1604;53.700;10.252;2023-09-07T07:58:46;23.90;95.20
3186;DHT22;1604;53.700;10.252;2023-09-07T08:01:48;24.00;94.40
3186;DHT22;1604;53.700;10.252;2023-09-07T08:04:50;24.20;94.10
3186;DHT22;1604;53.700;10.252;2023-09-07T08:07:53;24.40;94.00
3186;DHT22;1604;53.700;10.252;2023-09-07T08:10:58;24.60;92.80
3186;DHT22;1604;53.700;10.252;2023-09-07T08:14:02;24.70;93.80
3186;DHT22;1604;53.700;10.252;2023-09-07T08:17:04;24.90;92.80
3186;DHT22;1604;53.700;10.252;2023-09-07T08:20:07;25.30;91.00
3186;DHT22;1604;53.700;10.252;2023-09-07T08:23:11;25.40;91.10
3186;DHT22;1604;53.700;10.252;2023-09-07T08:26:13;25.60;87.10
3186;DHT22;1604;53.700;10.252;2023-09-07T08:29:17;25.70;86.40
3186;DHT22;1604;53.700;10.252;2023-09-07T08:36:17;25.70;88.10
3186;DHT22;1604;53.700;10.252;2023-09-07T08:39:22;25.90;89.30
3186;DHT22;1604;53.700;10.252;2023-09-07T08:42:24;26.10;88.30
3186;DHT22;1604;53.700;10.252;2023-09-07T08:45:29;26.30;87.40
3186;DHT22;1604;53.700;10.252;2023-09-07T08:48:32;26.40;87.40
3186;DHT22;1604;53.700;10.252;2023-09-07T08:51:36;26.60;87.50
3186;DHT22;1604;53.700;10.252;2023-09-07T08:54:39;26.80;82.40
3186;DHT22;1604;53.700;10.252;2023-09-07T08:57:43;27.10;81.80
3186;DHT22;1604;53.700;10.252;2023-09-07T09:00:47;27.20;83.10
3186;DHT22;1604;53.700;10.252;2023-09-07T09:03:50;27.40;82.80
3186;DHT22;1604;53.700;10.252;2023-09-07T09:06:55;27.60;81.30
3186;DHT22;1604;53.700;10.252;2023-09-07T09:10:06;28.00;77.40
3186;DHT22;1604;53.700;10.252;2023-09-07T09:13:12;28.10;74.90
3186;DHT22;1604;53.700;10.252;2023-09-07T09:16:20;28.30;73.70
3186;DHT22;1604;53.700;10.252;2023-09-07T09:19:30;28.40;72.60
3186;DHT22;1604;53.700;10.252;2023-09-07T09:22:36;28.40;73.40
3186;DHT22;1604;53.700;10.252;2023-09-07T09:25:40;28.40;73.60
3186;DHT22;1604;53.700;10.252;2023-09-07T09:28:43;28.40;71.60
3186;DHT22;1604;53.700;10.252;2023-09-07T09:31:52;28.30;73.60
3186;DHT22;1604;53.700;10.252;2023-09-07T09:34:57;28.20;73.10
3186;DHT22;1604;53.700;10.252;2023-09-07T09:38:05;28.20;73.00
3186;DHT22;1604;53.700;10.252;2023-09-07T09:41:08;28.30;73.10
3186;DHT22;1604;53.700;10.252;2023-09-07T09:44:12;28.30;74.50
3186;DHT22;1604;53.700;10.252;2023-09-07T09:47:21;28.40;71.70
3186;DHT22;1604;53.700;10.252;2023-09-07T09:50:24;28.50;71.00
3186;DHT22;1604;53.700;10.252;2023-09-07T09:53:29;28.70;69.80
3186;DHT22;1604;53.700;10.252;2023-09-07T09:56:32;28.90;69.60
3186;DHT22;1604;53.700;10.252;2023-09-07T09:59:37;29.00;70.40
3186;DHT22;1604;53.700;10.252;2023-09-07T10:02:44;29.20;69.10
3186;DHT22;1604;53.700;10.252;2023-09-07T10:05:50;29.30;67.50
3186;DHT22;1604;53.700;10.252;2023-09-07T10:08:59;29.40;67.30
3186;DHT22;1604;53.700;10.252;2023-09-07T10:12:12;29.60;66.20
3186;DHT22;1604;53.700;10.252;2023-09-07T10:15:21;29.60;65.90
3186;DHT22;1604;53.700;10.252;2023-09-07T10:18:33;29.70;67.00
3186;DHT22;1604;53.700;10.252;2023-09-07T10:21:39;29.90;63.80
3186;DHT22;1604;53.700;10.252;2023-09-07T10:24:41;29.90;64.00
3186;DHT22;1604;53.700;10.252;2023-09-07T10:27:46;30.00;64.70
3186;DHT22;1604;53.700;10.252;2023-09-07T10:31:01;30.10;62.40
3186;DHT22;1604;53.700;10.252;2023-09-07T10:34:09;30.10;63.90
3186;DHT22;1604;53.700;10.252;2023-09-07T10:37:14;30.30;62.80
3186;DHT22;1604;53.700;10.252;2023-09-07T10:40:20;30.50;58.30
3186;DHT22;1604;53.700;10.252;2023-09-07T10:43:27;30.50;57.40
3186;DHT22;1604;53.700;10.252;2023-09-07T10:46:29;30.40;58.60
3186;DHT22;1604;53.700;10.252;2023-09-07T10:49:32;30.40;59.50
3186;DHT22;1604;53.700;10.252;2023-09-07T10:52:34;30.40;59.00
3186;DHT22;1604;53.700;10.252;2023-09-07T10:55:37;30.20;59.00
3186;DHT22;1604;53.700;10.252;2023-09-07T10:58:40;30.40;58.00
3186;DHT22;1604;53.700;10.252;2023-09-07T11:01:44;30.40;57.50
3186;DHT22;1604;53.700;10.252;2023-09-07T11:04:47;30.40;57.00
3186;DHT22;1604;53.700;10.252;2023-09-07T11:07:49;30.50;57.20
3186;DHT22;1604;53.700;10.252;2023-09-07T11:10:51;30.50;58.00
3186;DHT22;1604;53.700;10.252;2023-09-07T11:13:53;30.60;57.40
3186;DHT22;1604;53.700;10.252;2023-09-07T11:17:01;30.60;56.90
3186;DHT22;1604;53.700;10.252;2023-09-07T11:20:06;30.60;56.00
3186;DHT22;1604;53.700;10.252;2023-09-07T11:23:08;30.60;55.90
3186;DHT22;1604;53.700;10.252;2023-09-07T11:26:13;30.60;56.30
3186;DHT22;1604;53.700;10.252;2023-09-07T11:29:18;30.60;57.00
3186;DHT22;1604;53.700;10.252;2023-09-07T11:32:20;30.50;56.30
3186;DHT22;1604;53.700;10.252;2023-09-07T11:35:24;30.50;57.20
3186;DHT22;1604;53.700;10.252;2023-09-07T11:38:28;30.50;57.30
3186;DHT22;1604;53.700;10.252;2023-09-07T11:41:31;30.70;57.50
3186;DHT22;1604;53.700;10.252;2023-09-07T11:44:32;30.80;57.30
3186;DHT22;1604;53.700;10.252;2023-09-07T11:47:35;31.00;57.20
3186;DHT22;1604;53.700;10.252;2023-09-07T11:50:39;31.10;55.80
3186;DHT22;1604;53.700;10.252;2023-09-07T11:53:41;31.20;56.20
3186;DHT22;1604;53.700;10.252;2023-09-07T11:56:43;31.20;54.90
3186;DHT22;1604;53.700;10.252;2023-09-07T11:59:46;31.30;55.90
3186;DHT22;1604;53.700;10.252;2023-09-07T12:02:48;31.30;55.70
3186;DHT22;1604;53.700;10.252;2023-09-07T12:05:51;31.40;55.30
3186;DHT22;1604;53.700;10.252;2023-09-07T12:09:01;31.30;56.80
3186;DHT22;1604;53.700;10.252;2023-09-07T12:12:04;31.40;55.00
3186;DHT22;1604;53.700;10.252;2023-09-07T12:15:07;31.40;56.10
3186;DHT22;1604;53.700;10.252;2023-09-07T12:18:09;31.50;54.90
3186;DHT22;1604;53.700;10.252;2023-09-07T12:21:12;31.50;55.80
3186;DHT22;1604;53.700;10.252;2023-09-07T12:24:14;31.60;56.00
3186;DHT22;1604;53.700;10.252;2023-09-07T12:27:16;31.70;55.60
3186;DHT22;1604;53.700;10.252;2023-09-07T12:30:19;31.70;54.50
3186;DHT22;1604;53.700;10.252;2023-09-07T12:33:21;31.50;55.30
3186;DHT22;1604;53.700;10.252;2023-09-07T12:36:24;31.50;55.70
3186;DHT22;1604;53.700;10.252;2023-09-07T12:39:30;31.60;55.80
3186;DHT22;1604;53.700;10.252;2023-09-07T12:42:35;31.60;55.30
3186;DHT22;1604;53.700;10.252;2023-09-07T12:45:39;31.50;54.10
3186;DHT22;1604;53.700;10.252;2023-09-07T12:48:41;31.40;53.60
3186;DHT22;1604;53.700;10.252;2023-09-07T12:51:46;31.40;54.40
3186;DHT22;1604;53.700;10.252;2023-09-07T12:54:48;31.40;54.10
3186;DHT22;1604;53.700;10.252;2023-09-07T12:57:49;31.40;55.70
3186;DHT22;1604;53.700;10.252;2023-09-07T13:00:51;31.50;55.10
3186;DHT22;1604;53.700;10.252;2023-09-07T13:03:53;31.50;54.60
3186;DHT22;1604;53.700;10.252;2023-09-07T13:06:57;31.50;53.50
3186;DHT22;1604;53.700;10.252;2023-09-07T13:09:59;31.40;53.00
3186;DHT22;1604;53.700;10.252;2023-09-07T13:13:05;31.30;54.00
3186;DHT22;1604;53.700;10.252;2023-09-07T13:16:07;31.20;53.50
3186;DHT22;1604;53.700;10.252;2023-09-07T13:19:10;31.20;51.70
3186;DHT22;1604;53.700;10.252;2023-09-07T13:22:13;31.10;53.70
3186;DHT22;1604;53.700;10.252;2023-09-07T13:25:15;31.10;54.00
3186;DHT22;1604;53.700;10.252;2023-09-07T13:28:17;31.00;53.80
3186;DHT22;1604;53.700;10.252;2023-09-07T13:31:19;31.00;51.60
3186;DHT22;1604;53.700;10.252;2023-09-07T13:34:21;31.00;52.30
3186;DHT22;1604;53.700;10.252;2023-09-07T13:37:25;30.90;53.20
3186;DHT22;1604;53.700;10.252;2023-09-07T13:40:27;30.90;53.40
3186;DHT22;1604;53.700;10.252;2023-09-07T13:43:30;31.00;52.50
3186;DHT22;1604;53.700;10.252;2023-09-07T13:46:32;31.00;52.90
3186;DHT22;1604;53.700;10.252;2023-09-07T13:49:34;31.00;53.30
3186;DHT22;1604;53.700;10.252;2023-09-07T13:52:37;31.00;52.90
3186;DHT22;1604;53.700;10.252;2023-09-07T13:55:39;31.00;53.40
3186;DHT22;1604;53.700;10.252;2023-09-07T13:58:42;30.90;53.50
3186;DHT22;1604;53.700;10.252;2023-09-07T14:01:44;31.00;52.30
3186;DHT22;1604;53.700;10.252;2023-09-07T14:04:46;30.90;52.40
3186;DHT22;1604;53.700;10.252;2023-09-07T14:07:51;30.80;51.80
3186;DHT22;1604;53.700;10.252;2023-09-07T14:10:53;30.80;51.60
3186;DHT22;1604;53.700;10.252;2023-09-07T14:13:55;30.70;50.90
3186;DHT22;1604;53.700;10.252;2023-09-07T14:16:57;30.60;52.20
3186;DHT22;1604;53.700;10.252;2023-09-07T14:20:00;30.60;53.00
3186;DHT22;1604;53.700;10.252;2023-09-07T14:23:04;30.70;51.70
3186;DHT22;1604;53.700;10.252;2023-09-07T14:26:06;30.50;52.20
3186;DHT22;1604;53.700;10.252;2023-09-07T14:29:08;30.30;53.00
3186;DHT22;1604;53.700;10.252;2023-09-07T14:32:09;30.30;53.00
3186;DHT22;1604;53.700;10.252;2023-09-07T14:35:11;30.20;54.10
3186;DHT22;1604;53.700;10.252;2023-09-07T14:38:14;30.20;54.20
3186;DHT22;1604;53.700;10.252;2023-09-07T14:41:16;30.20;53.00
3186;DHT22;1604;53.700;10.252;2023-09-07T14:44:20;30.10;54.50
3186;DHT22;1604;53.700;10.252;2023-09-07T14:47:22;30.10;53.90
3186;DHT22;1604;53.700;10.252;2023-09-07T14:50:26;30.10;52.60
3186;DHT22;1604;53.700;10.252;2023-09-07T14:53:29;30.10;52.10
3186;DHT22;1604;53.700;10.252;2023-09-07T14:56:31;30.10;53.20
3186;DHT22;1604;53.700;10.252;2023-09-07T14:59:35;30.10;53.30
3186;DHT22;1604;53.700;10.252;2023-09-07T15:02:42;30.00;53.10
3186;DHT22;1604;53.700;10.252;2023-09-07T15:05:44;30.00;52.00
3186;DHT22;1604;53.700;10.252;2023-09-07T15:08:47;29.90;52.40
3186;DHT22;1604;53.700;10.252;2023-09-07T15:11:50;29.80;53.60
3186;DHT22;1604;53.700;10.252;2023-09-07T15:14:53;29.70;53.40
3186;DHT22;1604;53.700;10.252;2023-09-07T15:17:55;29.60;52.50
3186;DHT22;1604;53.700;10.252;2023-09-07T15:20:57;29.60;53.00
3186;DHT22;1604;53.700;10.252;2023-09-07T15:24:00;29.50;52.90
3186;DHT22;1604;53.700;10.252;2023-09-07T15:27:07;29.40;53.20
3186;DHT22;1604;53.700;10.252;2023-09-07T15:30:12;29.20;53.20
3186;DHT22;1604;53.700;10.252;2023-09-07T15:33:15;29.10;53.90
3186;DHT22;1604;53.700;10.252;2023-09-07T15:36:18;29.00;54.60
3186;DHT22;1604;53.700;10.252;2023-09-07T15:39:27;28.80;55.00
3186;DHT22;1604;53.700;10.252;2023-09-07T15:42:29;28.70;55.30
3186;DHT22;1604;53.700;10.252;2023-09-07T15:45:35;28.60;56.40
3186;DHT22;1604;53.700;10.252;2023-09-07T15:48:48;28.50;57.60
3186;DHT22;1604;53.700;10.252;2023-09-07T15:51:50;28.50;57.80
3186;DHT22;1604;53.700;10.252;2023-09-07T15:54:56;28.40;58.20
3186;DHT22;1604;53.700;10.252;2023-09-07T15:58:01;28.30;58.60
3186;DHT22;1604;53.700;10.252;2023-09-07T16:01:05;28.30;57.60
3186;DHT22;1604;53.700;10.252;2023-09-07T16:04:07;28.20;57.30
3186;DHT22;1604;53.700;10.252;2023-09-07T16:07:10;28.10;57.70
3186;DHT22;1604;53.700;10.252;2023-09-07T16:10:19;28.10;58.50
3186;DHT22;1604;53.700;10.252;2023-09-07T16:13:25;28.00;59.50
3186;DHT22;1604;53.700;10.252;2023-09-07T16:16:27;27.90;58.90
3186;DHT22;1604;53.700;10.252;2023-09-07T16:19:29;27.90;59.80
3186;DHT22;1604;53.700;10.252;2023-09-07T16:22:32;27.80;61.10
3186;DHT22;1604;53.700;10.252;2023-09-07T16:25:41;27.80;60.40
3186;DHT22;1604;53.700;10.252;2023-09-07T16:28:44;27.80;60.30
3186;DHT22;1604;53.700;10.252;2023-09-07T16:31:49;27.70;61.80
3186;DHT22;1604;53.700;10.252;2023-09-07T16:34:51;27.60;61.20
3186;DHT22;1604;53.700;10.252;2023-09-07T16:37:56;27.50;61.10
3186;DHT22;1604;53.700;10.252;2023-09-07T16:41:04;27.50;62.20
3186;DHT22;1604;53.700;10.252;2023-09-07T16:44:06;27.40;62.20
3186;DHT22;1604;53.700;10.252;2023-09-07T16:47:08;27.30;62.20
3186;DHT22;1604;53.700;10.252;2023-09-07T16:50:11;27.30;61.90
3186;DHT22;1604;53.700;10.252;2023-09-07T16:53:13;27.30;62.40
3186;DHT22;1604;53.700;10.252;2023-09-07T16:56:19;27.20;62.40
3186;DHT22;1604;53.700;10.252;2023-09-07T16:59:21;27.10;62.20
3186;DHT22;1604;53.700;10.252;2023-09-07T17:02:23;27.00;63.00
3186;DHT22;1604;53.700;10.252;2023-09-07T17:05:28;26.90;63.30
3186;DHT22;1604;53.700;10.252;2023-09-07T17:08:30;26.80;64.80
3186;DHT22;1604;53.700;10.252;2023-09-07T17:11:33;26.70;72.50
3186;DHT22;1604;53.700;10.252;2023-09-07T17:14:36;26.50;76.20
3186;DHT22;1604;53.700;10.252;2023-09-07T17:17:37;26.40;79.10
3186;DHT22;1604;53.700;10.252;2023-09-07T17:20:39;26.20;81.80
3186;DHT22;1604;53.700;10.252;2023-09-07T17:23:41;26.00;83.60
3186;DHT22;1604;53.700;10.252;2023-09-07T17:26:44;25.80;85.30
3186;DHT22;1604;53.700;10.252;2023-09-07T17:29:46;25.60;87.00
3186;DHT22;1604;53.700;10.252;2023-09-07T17:32:48;25.50;88.20
3186;DHT22;1604;53.700;10.252;2023-09-07T17:35:50;25.30;89.30
3186;DHT22;1604;53.700;10.252;2023-09-07T17:38:54;25.10;90.30
3186;DHT22;1604;53.700;10.252;2023-09-07T17:41:58;25.00;91.10
3186;DHT22;1604;53.700;10.252;2023-09-07T17:44:59;24.80;92.10
3186;DHT22;1604;53.700;10.252;2023-09-07T17:48:02;24.60;92.80
3186;DHT22;1604;53.700;10.252;2023-09-07T17:51:18;24.40;93.40
3186;DHT22;1604;53.700;10.252;2023-09-07T17:54:22;24.30;94.00
3186;DHT22;1604;53.700;10.252;2023-09-07T17:57:26;24.10;94.70
3186;DHT22;1604;53.700;10.252;2023-09-07T18:00:28;24.00;95.00
3186;DHT22;1604;53.700;10.252;2023-09-07T18:03:30;23.90;95.40
3186;DHT22;1604;53.700;10.252;2023-09-07T18:06:32;23.80;95.80
3186;DHT22;1604;53.700;10.252;2023-09-07T18:09:34;23.60;96.20
3186;DHT22;1604;53.700;10.252;2023-09-07T18:12:38;23.50;96.60
3186;DHT22;1604;53.700;10.252;2023-09-07T18:15:41;23.40;97.00
3186;DHT22;1604;53.700;10.252;2023-09-07T18:18:43;23.30;97.30
3186;DHT22;1604;53.700;10.252;2023-09-07T18:21:45;23.10;97.80
3186;DHT22;1604;53.700;10.252;2023-09-07T18:24:47;23.00;97.90
3186;DHT22;1604;53.700;10.252;2023-09-07T18:27:51;22.90;98.30
3186;DHT22;1604;53.700;10.252;2023-09-07T18:30:53;22.80;98.50
3186;DHT22;1604;53.700;10.252;2023-09-07T18:33:55;22.60;98.80
3186;DHT22;1604;53.700;10.252;2023-09-07T18:36:57;22.50;99.10
3186;DHT22;1604;53.700;10.252;2023-09-07T18:39:59;22.40;99.30
3186;DHT22;1604;53.700;10.252;2023-09-07T18:43:02;22.30;99.30
3186;DHT22;1604;53.700;10.252;2023-09-07T18:46:05;22.20;99.50
3186;DHT22;1604;53.700;10.252;2023-09-07T18:49:07;22.10;99.70
3186;DHT22;1604;53.700;10.252;2023-09-07T18:52:09;22.00;99.90
3186;DHT22;1604;53.700;10.252;2023-09-07T18:55:11;21.90;99.90
3186;DHT22;1604;53.700;10.252;2023-09-07T18:58:15;21.80;99.90
3186;DHT22;1604;53.700;10.252;2023-09-07T19:01:17;21.70;99.90
3186;DHT22;1604;53.700;10.252;2023-09-07T19:04:19;21.60;99.90
3186;DHT22;1604;53.700;10.252;2023-09-07T19:07:24;21.50;99.90
3186;DHT22;1604;53.700;10.252;2023-09-07T19:10:26;21.40;99.90
3186;DHT22;1604;53.700;10.252;2023-09-07T19:13:33;21.30;99.90
3186;DHT22;1604;53.700;10.252;2023-09-07T19:16:35;21.30;99.90
3186;DHT22;1604;53.700;10.252;2023-09-07T19:19:40;21.20;99.90
3186;DHT22;1604;53.700;10.252;2023-09-07T19:22:42;21.10;99.90
3186;DHT22;1604;53.700;10.252;2023-09-07T19:25:44;21.00;99.90
3186;DHT22;1604;53.700;10.252;2023-09-07T19:28:48;21.00;99.90
3186;DHT22;1604;53.700;10.252;2023-09-07T19:31:50;20.90;99.90
3186;DHT22;1604;53.700;10.252;2023-09-07T19:34:52;20.80;99.90
3186;DHT22;1604;53.700;10.252;2023-09-07T19:37:54;20.70;99.90